createdAt,value
2023-04-01T00:02:46.109Z,6.00
2023-04-01T00:05:49.291Z,7.03
2023-04-01T00:08:53.446Z,7.10
2023-04-01T00:11:56.482Z,5.60
2023-04-01T00:14:59.577Z,6.47
2023-04-01T00:18:04.418Z,5.80
2023-04-01T00:21:07.602Z,7.83
2023-04-01T00:24:10.574Z,6.67
2023-04-01T00:27:13.509Z,8.30
2023-04-01T00:30:16.729Z,5.90
2023-04-01T00:33:21.342Z,5.97
2023-04-01T00:36:24.535Z,7.20
2023-04-01T00:39:27.495Z,5.40
2023-04-01T00:42:30.458Z,7.57
2023-04-01T00:45:37.439Z,8.10
2023-04-01T00:48:45.463Z,7.30
2023-04-01T00:51:51.604Z,6.57
2023-04-01T00:54:58.459Z,8.47
2023-04-01T00:58:03.824Z,6.40
2023-04-01T01:01:08.105Z,6.93
2023-04-01T01:04:24.844Z,5.33
2023-04-01T01:07:39.119Z,6.43
2023-04-01T01:10:44.047Z,7.43
2023-04-01T01:13:55.722Z,5.83
2023-04-01T01:17:04.621Z,6.97
2023-04-01T01:20:34.179Z,8.10
2023-04-01T01:24:09.195Z,7.90
2023-04-01T01:27:13.708Z,5.00
2023-04-01T01:30:33.229Z,6.37
2023-04-01T01:33:48.906Z,9.23
2023-04-01T01:36:58.408Z,7.47
2023-04-01T01:40:07.352Z,6.10
2023-04-01T01:43:14.810Z,5.50
2023-04-01T01:46:21.628Z,6.63
2023-04-01T01:49:25.516Z,5.17
2023-04-01T01:52:30.836Z,4.00
2023-04-01T01:55:36.138Z,4.53
2023-04-01T01:58:43.373Z,4.97
2023-04-01T02:01:50.480Z,6.10
2023-04-01T02:04:54.664Z,6.90
2023-04-01T02:08:05.233Z,5.43
2023-04-01T02:11:11.870Z,4.47
2023-04-01T02:14:17.398Z,4.73
2023-04-01T02:17:23.040Z,7.13
2023-04-01T02:20:26.675Z,6.20
2023-04-01T02:23:31.554Z,6.80
2023-04-01T02:26:34.519Z,7.30
2023-04-01T02:29:37.535Z,7.93
2023-04-01T02:32:41.718Z,6.47
2023-04-01T02:35:45.328Z,7.97
2023-04-01T02:38:51.536Z,5.47
2023-04-01T02:41:55.021Z,7.03
2023-04-01T02:44:58.017Z,6.47
2023-04-01T02:48:01.059Z,5.33
2023-04-01T02:51:04.714Z,6.10
2023-04-01T02:54:09.051Z,4.40
2023-04-01T02:57:12.058Z,4.27
2023-04-01T03:00:16.571Z,8.87
2023-04-01T03:03:19.700Z,6.93
2023-04-01T03:06:22.652Z,8.37
2023-04-01T03:09:26.911Z,7.93
2023-04-01T03:12:29.848Z,9.37
2023-04-01T03:15:34.298Z,6.70
2023-04-01T03:18:37.462Z,6.13
2023-04-01T03:21:40.417Z,6.83
2023-04-01T03:24:44.731Z,6.07
2023-04-01T03:27:47.716Z,9.40
2023-04-01T03:30:50.684Z,6.40
2023-04-01T03:33:53.753Z,7.20
2023-04-01T03:36:56.711Z,6.13
2023-04-01T03:40:01.011Z,8.73
2023-04-01T03:43:04.622Z,8.50
2023-04-01T03:46:07.671Z,6.93
2023-04-01T03:49:12.484Z,8.53
2023-04-01T03:52:15.574Z,7.07
2023-04-01T03:55:19.967Z,6.40
2023-04-01T03:58:22.903Z,6.30
2023-04-01T04:01:25.912Z,5.30
2023-04-01T04:04:29.475Z,7.50
2023-04-01T04:07:32.418Z,7.37
2023-04-01T04:10:36.739Z,6.90
2023-04-01T04:13:39.685Z,6.77
2023-04-01T04:16:42.635Z,7.27
2023-04-01T04:19:46.206Z,6.23
2023-04-01T04:22:49.225Z,7.53
2023-04-01T04:25:58.481Z,6.90
2023-04-01T04:29:02.038Z,5.87
2023-04-01T04:32:05.138Z,7.93
2023-04-01T04:35:08.731Z,6.37
2023-04-01T04:38:11.741Z,5.37
2023-04-01T04:41:18.630Z,7.60
2023-04-01T04:44:21.570Z,7.57
2023-04-01T04:47:24.623Z,7.30
2023-04-01T04:50:27.705Z,7.03
2023-04-01T04:53:30.833Z,8.57
2023-04-01T04:56:36.833Z,7.20
2023-04-01T04:59:39.761Z,7.40
2023-04-01T05:02:42.811Z,6.30
2023-04-01T05:05:51.862Z,6.13
2023-04-01T05:08:54.829Z,7.37
2023-04-01T05:11:59.103Z,7.67
2023-04-01T05:15:02.084Z,7.37
2023-04-01T05:18:05.426Z,5.63
2023-04-01T05:21:10.149Z,6.63
2023-04-01T05:24:13.098Z,5.70
2023-04-01T05:27:17.772Z,2.40
2023-04-01T05:30:21.478Z,2.17
2023-04-01T05:33:24.405Z,2.13
2023-04-01T05:36:27.389Z,3.13
2023-04-01T05:39:30.403Z,0.80
2023-04-01T05:42:36.926Z,0.60
2023-04-01T05:45:41.222Z,0.73
2023-04-01T05:48:44.259Z,1.00
2023-04-01T05:51:47.213Z,0.83
2023-04-01T05:54:50.266Z,0.77
2023-04-01T05:57:54.559Z,0.87
2023-04-01T06:01:09.560Z,0.80
2023-04-01T06:04:17.452Z,0.90
2023-04-01T06:07:20.573Z,0.83
2023-04-01T06:10:27.487Z,1.07
2023-04-01T06:13:45.052Z,1.00
2023-04-01T06:17:04.064Z,1.17
2023-04-01T06:20:14.130Z,1.27
2023-04-01T06:23:35.688Z,0.80
2023-04-01T06:26:44.064Z,1.07
2023-04-01T06:29:57.152Z,0.87
2023-04-01T06:33:20.371Z,0.90
2023-04-01T06:36:43.855Z,0.87
2023-04-01T06:40:21.171Z,0.80
2023-04-01T06:43:32.150Z,0.80
2023-04-01T06:46:45.712Z,0.80
2023-04-01T06:49:58.563Z,0.67
2023-04-01T06:53:08.606Z,0.80
2023-04-01T06:56:14.813Z,0.60
2023-04-01T06:59:21.269Z,0.60
2023-04-01T07:02:31.628Z,1.17
2023-04-01T07:05:36.614Z,0.70
2023-04-01T07:08:44.088Z,0.50
2023-04-01T07:11:47.607Z,1.67
2023-04-01T07:14:51.736Z,0.50
2023-04-01T07:17:59.626Z,0.77
2023-04-01T07:21:04.153Z,1.07
2023-04-01T07:24:11.120Z,0.60
2023-04-01T07:27:16.585Z,0.40
2023-04-01T07:30:21.431Z,0.60
2023-04-01T07:33:35.445Z,0.50
2023-04-01T07:36:43.949Z,0.90
2023-04-01T07:39:58.113Z,0.57
2023-04-01T07:43:27.483Z,1.23
2023-04-01T07:46:49.855Z,1.10
2023-04-01T07:50:04.715Z,0.93
2023-04-01T07:53:19.112Z,0.57
2023-04-01T07:56:27.418Z,0.53
2023-04-01T07:59:39.329Z,0.60
2023-04-01T08:02:59.333Z,1.10
2023-04-01T08:06:13.570Z,0.37
2023-04-01T08:09:23.741Z,0.70
2023-04-01T08:12:42.620Z,1.63
2023-04-01T08:15:55.442Z,0.57
2023-04-01T08:19:11.498Z,0.43
2023-04-01T08:22:21.001Z,0.60
2023-04-01T08:25:27.809Z,0.40
2023-04-01T08:28:36.299Z,1.67
2023-04-01T08:31:45.109Z,0.50
2023-04-01T08:34:53.112Z,0.43
2023-04-01T08:38:02.827Z,0.60
2023-04-01T08:41:24.751Z,0.70
2023-04-01T08:44:41.432Z,0.40
2023-04-01T08:47:52.384Z,0.70
2023-04-01T08:51:21.449Z,0.60
2023-04-01T08:54:54.409Z,0.40
2023-04-01T08:58:22.691Z,0.43
2023-04-01T09:01:59.912Z,0.93
2023-04-01T09:05:29.030Z,0.33
2023-04-01T09:08:43.462Z,0.47
2023-04-01T09:12:08.458Z,1.13
2023-04-01T09:16:02.579Z,0.50
2023-04-01T09:19:26.262Z,0.40
2023-04-01T09:22:44.562Z,1.57
2023-04-01T09:25:58.397Z,1.43
2023-04-01T09:29:19.722Z,0.60
2023-04-01T09:32:57.578Z,0.43
2023-04-01T09:36:09.554Z,1.10
2023-04-01T09:39:30.851Z,0.40
2023-04-01T09:42:46.313Z,0.53
2023-04-01T09:46:06.196Z,0.43
2023-04-01T09:49:39.781Z,0.40
2023-04-01T09:52:49.278Z,0.50
2023-04-01T09:56:21.536Z,0.50
2023-04-01T10:00:05.445Z,0.43
2023-04-01T10:03:50.620Z,0.70
2023-04-01T10:07:30.007Z,0.60
2023-04-01T10:11:02.459Z,0.40
2023-04-01T10:14:55.947Z,0.30
2023-04-01T10:18:41.911Z,0.50
2023-04-01T10:22:32.153Z,0.33
2023-04-01T10:26:18.831Z,0.37
2023-04-01T10:29:58.251Z,0.60
2023-04-01T10:33:36.207Z,0.60
2023-04-01T10:36:56.947Z,0.30
2023-04-01T10:40:23.484Z,0.40
2023-04-01T10:44:09.097Z,0.73
2023-04-01T10:47:48.686Z,0.40
2023-04-01T10:51:22.971Z,0.30
2023-04-01T10:54:46.589Z,0.40
2023-04-01T10:58:30.789Z,0.40
2023-04-01T11:02:17.692Z,0.40
2023-04-01T11:05:59.755Z,0.43
2023-04-01T11:09:33.610Z,0.40
2023-04-01T11:12:58.281Z,0.40
2023-04-01T11:16:26.956Z,0.40
2023-04-01T11:19:57.381Z,0.43
2023-04-01T11:23:26.347Z,0.43
2023-04-01T11:26:39.547Z,0.93
2023-04-01T11:29:59.754Z,0.73
2023-04-01T11:33:09.921Z,2.00
2023-04-01T11:36:26.174Z,0.83
2023-04-01T11:39:36.504Z,0.80
2023-04-01T11:42:47.258Z,1.67
2023-04-01T11:45:55.387Z,1.20
2023-04-01T11:49:07.945Z,1.17
2023-04-01T11:52:35.455Z,1.97
2023-04-01T11:55:56.216Z,2.00
2023-04-01T11:59:27.191Z,1.63
2023-04-01T12:02:42.517Z,1.60
2023-04-01T12:05:52.299Z,1.77
2023-04-01T12:09:04.222Z,3.53
2023-04-01T12:12:19.785Z,3.53
2023-04-01T12:15:31.489Z,2.10
2023-04-01T12:18:40.530Z,2.40
2023-04-01T12:21:49.938Z,2.70
2023-04-01T12:25:00.748Z,1.63
2023-04-01T12:28:13.179Z,3.43
2023-04-01T12:31:29.815Z,2.43
2023-04-01T12:34:47.009Z,1.70
2023-04-01T12:38:04.760Z,2.27
2023-04-01T12:41:16.333Z,2.10
2023-04-01T12:44:31.657Z,2.07
2023-04-01T12:47:53.288Z,2.33
2023-04-01T12:51:27.845Z,4.93
2023-04-01T12:54:53.728Z,2.70
2023-04-01T12:58:18.133Z,2.70
2023-04-01T13:01:32.512Z,1.93
2023-04-01T13:04:57.961Z,1.77
2023-04-01T13:08:12.250Z,1.97
2023-04-01T13:11:22.581Z,2.00
2023-04-01T13:14:46.741Z,2.90
2023-04-01T13:17:55.690Z,3.20
2023-04-01T13:21:08.065Z,4.60
2023-04-01T13:24:33.272Z,1.77
2023-04-01T13:27:42.668Z,1.93
2023-04-01T13:30:55.521Z,2.33
2023-04-01T13:34:08.626Z,1.27
2023-04-01T13:37:26.271Z,2.67
2023-04-01T13:40:42.798Z,1.93
2023-04-01T13:43:54.489Z,2.33
2023-04-01T13:47:21.732Z,2.77
2023-04-01T13:50:46.157Z,1.90
2023-04-01T13:54:06.250Z,2.13
2023-04-01T13:57:25.976Z,4.97
2023-04-01T14:00:43.728Z,2.27
2023-04-01T14:04:04.565Z,2.47
2023-04-01T14:07:25.028Z,3.20
2023-04-01T14:10:37.366Z,2.83
2023-04-01T14:13:49.737Z,2.37
2023-04-01T14:17:11.904Z,3.50
2023-04-01T14:20:31.351Z,3.70
2023-04-01T14:23:51.764Z,2.37
2023-04-01T14:27:14.273Z,3.70
2023-04-01T14:30:34.667Z,3.30
2023-04-01T14:33:48.079Z,6.27
2023-04-01T14:37:21.841Z,3.10
2023-04-01T14:40:30.715Z,3.50
2023-04-01T14:44:02.427Z,3.67
2023-04-01T14:47:25.111Z,3.93
2023-04-01T14:50:32.468Z,2.33
2023-04-01T14:53:39.678Z,2.40
2023-04-01T14:56:44.600Z,3.80
2023-04-01T14:59:51.285Z,5.00
2023-04-01T15:03:03.236Z,3.80
2023-04-01T15:06:45.431Z,3.73
2023-04-01T15:09:57.278Z,3.00
2023-04-01T15:13:12.583Z,3.90
2023-04-01T15:16:23.753Z,5.07
2023-04-01T15:19:39.736Z,3.37
2023-04-01T15:22:58.323Z,6.30
2023-04-01T15:26:33.812Z,4.87
2023-04-01T15:30:02.096Z,3.27
2023-04-01T15:33:30.381Z,4.73
2023-04-01T15:36:43.296Z,2.80
2023-04-01T15:39:56.525Z,4.73
2023-04-01T15:43:14.943Z,5.50
2023-04-01T15:46:38.062Z,6.53
2023-04-01T15:49:45.559Z,7.50
2023-04-01T15:52:56.357Z,5.83
2023-04-01T15:56:13.261Z,5.70
2023-04-01T15:59:30.986Z,6.00
2023-04-01T16:02:37.343Z,6.10
2023-04-01T16:05:53.236Z,6.20
2023-04-01T16:09:36.601Z,5.50
2023-04-01T16:12:54.811Z,8.93
2023-04-01T16:16:09.388Z,4.20
2023-04-01T16:19:33.691Z,5.23
2023-04-01T16:22:40.114Z,5.37
2023-04-01T16:25:48.416Z,5.53
2023-04-01T16:28:57.179Z,5.60
2023-04-01T16:32:16.669Z,6.30
2023-04-01T16:35:30.631Z,4.73
2023-04-01T16:38:41.605Z,4.97
2023-04-01T16:41:51.165Z,5.43
2023-04-01T16:45:00.295Z,5.87
2023-04-01T16:48:12.330Z,5.93
2023-04-01T16:51:18.242Z,5.40
2023-04-01T16:54:31.710Z,9.57
2023-04-01T16:57:45.808Z,8.77
2023-04-01T17:00:54.345Z,5.93
2023-04-01T17:04:08.413Z,5.27
2023-04-01T17:07:23.170Z,6.47
2023-04-01T17:10:48.695Z,6.70
2023-04-01T17:14:01.382Z,4.80
2023-04-01T17:17:37.240Z,3.77
2023-04-01T17:20:48.477Z,3.43
2023-04-01T17:23:54.148Z,6.63
2023-04-01T17:27:07.976Z,3.00
2023-04-01T17:30:22.544Z,2.93
2023-04-01T17:33:46.445Z,4.13
2023-04-01T17:37:08.623Z,4.40
2023-04-01T17:40:28.453Z,3.60
2023-04-01T17:43:45.179Z,4.87
2023-04-01T17:47:07.548Z,3.60
2023-04-01T17:50:23.637Z,4.80
2023-04-01T17:53:38.295Z,2.50
2023-04-01T17:56:55.684Z,2.53
2023-04-01T18:00:04.413Z,3.60
2023-04-01T18:03:19.810Z,4.97
2023-04-01T18:06:37.028Z,3.70
2023-04-01T18:09:50.956Z,3.00
2023-04-01T18:13:19.641Z,4.37
2023-04-01T18:16:44.232Z,2.50
2023-04-01T18:20:06.640Z,3.30
2023-04-01T18:23:21.084Z,4.63
2023-04-01T18:26:28.748Z,4.30
2023-04-01T18:29:42.074Z,4.43
2023-04-01T18:32:51.228Z,6.40
2023-04-01T18:36:00.148Z,4.23
2023-04-01T18:39:10.109Z,6.57
2023-04-01T18:42:26.702Z,5.67
2023-04-01T18:45:32.805Z,4.23
2023-04-01T18:48:53.438Z,5.30
2023-04-01T18:52:00.323Z,4.33
2023-04-01T18:55:32.592Z,2.90
2023-04-01T18:58:36.995Z,2.27
2023-04-01T19:01:45.967Z,2.57
2023-04-01T19:04:54.302Z,4.70
2023-04-01T19:07:58.302Z,6.30
2023-04-01T19:11:12.888Z,4.10
2023-04-01T19:14:21.547Z,4.60
2023-04-01T19:17:38.015Z,5.73
2023-04-01T19:20:48.167Z,3.47
2023-04-01T19:24:24.147Z,3.77
2023-04-01T19:27:37.391Z,4.90
2023-04-01T19:30:53.366Z,5.47
2023-04-01T19:34:11.318Z,3.57
2023-04-01T19:37:30.546Z,6.60
2023-04-01T19:40:52.856Z,4.83
2023-04-01T19:44:04.421Z,3.97
2023-04-01T19:47:14.839Z,4.03
2023-04-01T19:50:30.794Z,2.80
2023-04-01T19:53:39.812Z,2.40
2023-04-01T19:56:49.690Z,4.07
2023-04-01T20:00:03.140Z,4.23
2023-04-01T20:03:15.291Z,6.73
2023-04-01T20:06:30.516Z,4.63
2023-04-01T20:09:50.414Z,6.20
2023-04-01T20:13:02.990Z,4.73
2023-04-01T20:16:09.393Z,2.60
2023-04-01T20:19:13.485Z,4.67
2023-04-01T20:22:30.811Z,4.17
2023-04-01T20:25:41.438Z,1.97
2023-04-01T20:28:46.948Z,5.27
2023-04-01T20:32:00.391Z,4.87
2023-04-01T20:35:22.316Z,3.33
2023-04-01T20:38:52.839Z,6.00
2023-04-01T20:42:16.495Z,2.43
2023-04-01T20:45:36.475Z,3.50
2023-04-01T20:48:59.134Z,4.07
2023-04-01T20:52:16.481Z,4.10
2023-04-01T20:55:32.468Z,3.13
2023-04-01T20:58:47.730Z,3.57
2023-04-01T21:02:03.359Z,3.47
2023-04-01T21:05:56.196Z,3.03
2023-04-01T21:09:11.695Z,3.77
2023-04-01T21:12:25.655Z,3.77
2023-04-01T21:15:49.274Z,3.50
2023-04-01T21:19:10.417Z,4.33
2023-04-01T21:22:38.604Z,2.07
2023-04-01T21:26:11.093Z,2.33
2023-04-01T21:29:36.918Z,6.07
2023-04-01T21:32:53.747Z,5.03
2023-04-01T21:36:06.246Z,3.23
2023-04-01T21:39:24.348Z,4.33
2023-04-01T21:42:38.218Z,5.67
2023-04-01T21:46:02.122Z,3.83
2023-04-01T21:49:34.932Z,3.57
2023-04-01T21:52:56.974Z,2.47
2023-04-01T21:56:47.523Z,3.93
2023-04-01T22:00:16.765Z,4.00
2023-04-01T22:03:59.729Z,5.17
2023-04-01T22:07:07.368Z,4.33
2023-04-01T22:10:21.727Z,2.20
2023-04-01T22:13:31.662Z,2.43
2023-04-01T22:16:41.619Z,3.40
2023-04-01T22:19:54.053Z,3.53
2023-04-01T22:23:10.938Z,4.20
2023-04-01T22:26:19.799Z,2.90
2023-04-01T22:29:30.881Z,1.30
2023-04-01T22:32:39.679Z,3.53
2023-04-01T22:35:48.932Z,2.50
2023-04-01T22:39:07.037Z,3.53
2023-04-01T22:42:25.625Z,4.90
2023-04-01T22:46:08.097Z,3.83
2023-04-01T22:49:18.940Z,1.60
2023-04-01T22:52:27.654Z,3.60
2023-04-01T22:55:35.111Z,6.00
2023-04-01T22:58:43.990Z,2.90
2023-04-01T23:01:53.284Z,2.47
2023-04-01T23:04:59.960Z,2.50
2023-04-01T23:08:24.650Z,3.00
2023-04-01T23:11:31.840Z,2.23
2023-04-01T23:14:47.483Z,6.63
2023-04-01T23:18:16.980Z,2.87
2023-04-01T23:21:26.071Z,4.77
2023-04-01T23:24:36.028Z,2.53
2023-04-01T23:27:47.142Z,3.90
2023-04-01T23:30:54.093Z,2.83
2023-04-01T23:34:00.002Z,4.77
2023-04-01T23:37:06.197Z,1.53
2023-04-01T23:40:15.498Z,4.57
2023-04-01T23:43:26.896Z,3.53
2023-04-01T23:46:32.132Z,3.90
2023-04-01T23:49:41.898Z,3.30
2023-04-01T23:52:48.379Z,6.27
2023-04-01T23:55:52.948Z,2.03
2023-04-01T23:58:57.738Z,3.27
